罗盘
风向 的 Béziers-Vias Airport 9/27
风: 0 kt, 0 beaufort


改变
0 1.000 2.000 3.000 4.000 5.000
CAVOK
METAR LFMU 030530Z AUTO 00000KT CAVOK 19/12 Q1018 NOSIG

METAR Béziers-Vias Airport

Béziers-Vias Airport是Béziers/Vias,法国中的中型机场。 该机场有2条跑道: 9/27 和 10/28.

这份报告是针对2022年7月3日 7:30 上午, 当地时间在Béziers-Vias Airport进行的。

机场观察

可变方向的风很小或没有风。

天气为CAVOK。这意味着在5.000 ft或MSA(最低安全高度)以下(以较高者为准)以下没有云。这也意味着没有观测到积雨云或高耸的积云,可见度为6¼ mi 或者更多或更高。此外,不会有雾,降雨或其他重要天气。

温度和风寒是66 °F。 露点为54 °F,相对湿度为64%。 海平面上的气压为30,06 inHg (QNH)。

白天

今天,太阳从6:11 上午升起,在9:30 下午降落。 这适用于Béziers-Vias Airport,世界夏令时可能有所不同。 当地时间与世界标准时间之间的时差为+2 小时。 夏令时目前正在进行中。

公司介绍

在这个机场,你可以找到飞行俱乐部。 这个机场上的公司有Aéroclub de Béziers 和 Les Ailes du Canal du Midi。

体会

到Vliegles.nl去找飞行课程,跳伞和其他飞行体验。 浏览页面,了解Béziers-Vias Airport附近所有可用的活动。 你也可以使用搜索功能来寻找你所在地附近的特定飞行课程、跳伞或其他飞行体验。

您会帮助我们保持Metar-Taf.com正常运行吗?
您的贡献有助于网站的进一步开发并支付费用。

没有更多广告

您是捐款5美元还是更多?然后,我们将永远不会再向您展示广告,这是我们永恒的感谢!
捐赠前先登录

跑道

Id 标题 侧风 逆风 侧风 %
9/27 094°-274° 100 %
10/28 094°-274° 100 %

逆风成分最大的方向会被突出显示,并用于横风计算。 这并不一定意味着这个方向在使用。

温度 & 天气

温度 66 °F
露点 54 °F
相对湿度 64%
Kp-index 0  

公司介绍

新增公司

下载我们的应用程序

在您的手机和平板电脑上轻松访问所有航空天气。
有许多网站上没有的功能,如离线支持和个人机场列表。

Studio Eveline

Benalmádena
España

我们和第三方通过cookies跟踪您在我们网站上的上网行为。如果您继续,我们认为您同意我们的cookie政策。 了解更多